YBCG/OOL METAR and TAF weather

Enter ICAO airport designator
Station Type Date Time Source
YBCG METAR 2019/08/23 15:00 UTC NOAA

YBCG 231500Z AUTO 23002KT 9999 // NCD 09/08 Q1024


Station Type Date Time Source
YBCG Decoded METAR 2019/08/23 15:00 UTC NOAA

Station name not available
Aug 23, 2019 - 11:00 AM EDT / 2019.08.23 1500 UTC
Wind: from the SW (230 degrees) at 2 MPH (2 KT):0
Visibility: greater than 7 mile(s):0
Temperature: 48 F (9 C)
Dew Point: 46 F (8 C)
Relative Humidity: 93%
Pressure (altimeter): 30.24 in. Hg (1024 hPa)
ob: YBCG 231500Z AUTO 23002KT 9999 // NCD 09/08 Q1024
cycle: 15

Station Type Date Time Source
YBCG TAF 2019/08/23 12:33 UTC NOAA

TAF YBCG 231100Z 2312/2412 22006KT 9999 FEW025
FM240000 02012KT 9999 FEW030
FM240900 35010KT 9999 FEW020

Example: see airport list